sensor_id;sensor_type;location;lat;lon;timestamp;P1;durP1;ratioP1;P2;durP2;ratioP2
59974;SDS011;62136;-35.664;-63.766;2022-11-15T00:01:05;5.00;;;2.75;;
59974;SDS011;62136;-35.664;-63.766;2022-11-15T00:03:40;5.47;;;3.28;;
59974;SDS011;62136;-35.664;-63.766;2022-11-15T00:06:08;5.55;;;2.67;;
59974;SDS011;62136;-35.664;-63.766;2022-11-15T00:08:35;5.72;;;2.65;;
59974;SDS011;62136;-35.664;-63.766;2022-11-15T00:11:02;7.40;;;2.72;;
59974;SDS011;62136;-35.664;-63.766;2022-11-15T00:13:29;7.35;;;2.47;;
59974;SDS011;62136;-35.664;-63.766;2022-11-15T00:15:57;4.30;;;2.72;;
59974;SDS011;62136;-35.664;-63.766;2022-11-15T00:18:25;7.18;;;2.80;;
59974;SDS011;62136;-35.664;-63.766;2022-11-15T00:20:52;11.88;;;3.40;;
59974;SDS011;62136;-35.664;-63.766;2022-11-15T00:23:20;8.55;;;3.03;;
59974;SDS011;62136;-35.664;-63.766;2022-11-15T00:25:47;9.20;;;3.30;;
59974;SDS011;62136;-35.664;-63.766;2022-11-15T00:28:21;9.27;;;3.28;;
59974;SDS011;62136;-35.664;-63.766;2022-11-15T00:30:48;8.75;;;3.60;;
59974;SDS011;62136;-35.664;-63.766;2022-11-15T00:33:15;15.55;;;4.38;;
59974;SDS011;62136;-35.664;-63.766;2022-11-15T00:35:42;12.20;;;4.03;;
59974;SDS011;62136;-35.664;-63.766;2022-11-15T00:38:09;12.82;;;4.65;;
59974;SDS011;62136;-35.664;-63.766;2022-11-15T00:40:36;10.80;;;4.18;;
59974;SDS011;62136;-35.664;-63.766;2022-11-15T00:43:03;9.68;;;4.20;;
59974;SDS011;62136;-35.664;-63.766;2022-11-15T00:45:30;10.98;;;4.57;;
59974;SDS011;62136;-35.664;-63.766;2022-11-15T00:47:57;7.85;;;4.22;;
59974;SDS011;62136;-35.664;-63.766;2022-11-15T00:50:24;22.38;;;5.93;;
59974;SDS011;62136;-35.664;-63.766;2022-11-15T00:52:51;18.15;;;5.47;;
59974;SDS011;62136;-35.664;-63.766;2022-11-15T00:55:18;19.13;;;6.10;;
59974;SDS011;62136;-35.664;-63.766;2022-11-15T00:57:46;18.20;;;7.03;;
59974;SDS011;62136;-35.664;-63.766;2022-11-15T01:00:13;12.00;;;6.22;;
59974;SDS011;62136;-35.664;-63.766;2022-11-15T01:02:40;18.20;;;8.52;;
59974;SDS011;62136;-35.664;-63.766;2022-11-15T01:05:07;37.28;;;10.43;;
59974;SDS011;62136;-35.664;-63.766;2022-11-15T01:07:35;21.73;;;10.80;;
59974;SDS011;62136;-35.664;-63.766;2022-11-15T01:10:02;22.27;;;10.07;;
59974;SDS011;62136;-35.664;-63.766;2022-11-15T01:12:30;25.23;;;11.55;;
59974;SDS011;62136;-35.664;-63.766;2022-11-15T01:14:57;30.08;;;11.98;;
59974;SDS011;62136;-35.664;-63.766;2022-11-15T01:17:24;22.20;;;12.07;;
59974;SDS011;62136;-35.664;-63.766;2022-11-15T01:19:51;26.75;;;11.82;;
59974;SDS011;62136;-35.664;-63.766;2022-11-15T01:22:18;23.60;;;11.32;;
59974;SDS011;62136;-35.664;-63.766;2022-11-15T01:24:46;20.77;;;10.80;;
59974;SDS011;62136;-35.664;-63.766;2022-11-15T01:27:13;25.58;;;10.88;;
59974;SDS011;62136;-35.664;-63.766;2022-11-15T01:29:40;19.10;;;10.45;;
59974;SDS011;62136;-35.664;-63.766;2022-11-15T01:32:07;20.85;;;10.55;;
59974;SDS011;62136;-35.664;-63.766;2022-11-15T01:34:34;19.10;;;10.57;;
59974;SDS011;62136;-35.664;-63.766;2022-11-15T01:37:01;22.85;;;10.98;;
59974;SDS011;62136;-35.664;-63.766;2022-11-15T01:39:28;22.30;;;10.60;;
59974;SDS011;62136;-35.664;-63.766;2022-11-15T01:41:55;22.85;;;10.43;;
59974;SDS011;62136;-35.664;-63.766;2022-11-15T01:50:15;17.23;;;9.90;;
59974;SDS011;62136;-35.664;-63.766;2022-11-15T01:52:46;22.10;;;10.30;;
59974;SDS011;62136;-35.664;-63.766;2022-11-15T01:55:23;16.40;;;9.57;;
59974;SDS011;62136;-35.664;-63.766;2022-11-15T01:57:57;21.75;;;9.85;;
59974;SDS011;62136;-35.664;-63.766;2022-11-15T02:00:27;18.38;;;10.02;;
59974;SDS011;62136;-35.664;-63.766;2022-11-15T02:02:55;17.27;;;9.43;;
59974;SDS011;62136;-35.664;-63.766;2022-11-15T02:05:22;15.32;;;10.02;;
59974;SDS011;62136;-35.664;-63.766;2022-11-15T02:07:49;16.52;;;8.30;;
59974;SDS011;62136;-35.664;-63.766;2022-11-15T02:10:18;14.50;;;8.82;;
59974;SDS011;62136;-35.664;-63.766;2022-11-15T02:12:47;17.42;;;9.48;;
59974;SDS011;62136;-35.664;-63.766;2022-11-15T02:15:18;14.00;;;9.00;;
59974;SDS011;62136;-35.664;-63.766;2022-11-15T02:20:53;14.70;;;7.90;;
59974;SDS011;62136;-35.664;-63.766;2022-11-15T02:24:35;16.20;;;8.80;;
59974;SDS011;62136;-35.664;-63.766;2022-11-15T02:29:56;18.75;;;8.68;;
59974;SDS011;62136;-35.664;-63.766;2022-11-15T02:32:15;20.40;;;7.97;;
59974;SDS011;62136;-35.664;-63.766;2022-11-15T02:40:38;10.80;;;7.55;;
59974;SDS011;62136;-35.664;-63.766;2022-11-15T02:43:17;11.70;;;7.45;;
59974;SDS011;62136;-35.664;-63.766;2022-11-15T02:47:07;12.82;;;7.82;;
59974;SDS011;62136;-35.664;-63.766;2022-11-15T02:49:49;9.63;;;6.65;;
59974;SDS011;62136;-35.664;-63.766;2022-11-15T02:52:22;10.52;;;6.88;;
59974;SDS011;62136;-35.664;-63.766;2022-11-15T02:54:54;10.70;;;7.55;;
59974;SDS011;62136;-35.664;-63.766;2022-11-15T03:01:17;10.43;;;6.75;;
59974;SDS011;62136;-35.664;-63.766;2022-11-15T03:04:13;11.13;;;6.80;;
59974;SDS011;62136;-35.664;-63.766;2022-11-15T03:06:48;10.75;;;7.43;;
59974;SDS011;62136;-35.664;-63.766;2022-11-15T03:09:34;9.60;;;6.95;;
59974;SDS011;62136;-35.664;-63.766;2022-11-15T03:12:12;9.55;;;6.65;;
59974;SDS011;62136;-35.664;-63.766;2022-11-15T03:17:28;14.13;;;6.70;;
59974;SDS011;62136;-35.664;-63.766;2022-11-15T03:20:17;12.63;;;6.78;;
59974;SDS011;62136;-35.664;-63.766;2022-11-15T03:22:45;11.48;;;7.70;;
59974;SDS011;62136;-35.664;-63.766;2022-11-15T03:25:16;9.73;;;6.28;;
59974;SDS011;62136;-35.664;-63.766;2022-11-15T03:27:50;10.82;;;6.50;;
59974;SDS011;62136;-35.664;-63.766;2022-11-15T03:30:21;11.07;;;6.68;;
59974;SDS011;62136;-35.664;-63.766;2022-11-15T03:32:52;10.27;;;6.82;;
59974;SDS011;62136;-35.664;-63.766;2022-11-15T03:35:25;9.07;;;5.80;;
59974;SDS011;62136;-35.664;-63.766;2022-11-15T03:40:54;11.57;;;6.63;;
59974;SDS011;62136;-35.664;-63.766;2022-11-15T03:46:13;9.63;;;6.00;;
59974;SDS011;62136;-35.664;-63.766;2022-11-15T03:49:05;8.98;;;6.20;;
59974;SDS011;62136;-35.664;-63.766;2022-11-15T03:51:42;11.70;;;6.63;;
59974;SDS011;62136;-35.664;-63.766;2022-11-15T03:54:11;7.97;;;5.97;;
59974;SDS011;62136;-35.664;-63.766;2022-11-15T03:56:39;10.48;;;6.15;;
59974;SDS011;62136;-35.664;-63.766;2022-11-15T03:59:06;11.15;;;6.13;;
59974;SDS011;62136;-35.664;-63.766;2022-11-15T04:01:33;8.05;;;6.30;;
59974;SDS011;62136;-35.664;-63.766;2022-11-15T04:04:03;8.63;;;6.10;;
59974;SDS011;62136;-35.664;-63.766;2022-11-15T04:06:30;10.68;;;5.72;;
59974;SDS011;62136;-35.664;-63.766;2022-11-15T04:08:57;8.45;;;5.80;;
59974;SDS011;62136;-35.664;-63.766;2022-11-15T04:11:24;7.10;;;5.95;;
59974;SDS011;62136;-35.664;-63.766;2022-11-15T04:13:51;8.18;;;5.72;;
59974;SDS011;62136;-35.664;-63.766;2022-11-15T04:16:18;9.88;;;5.43;;
59974;SDS011;62136;-35.664;-63.766;2022-11-15T04:18:45;6.32;;;5.15;;
59974;SDS011;62136;-35.664;-63.766;2022-11-15T04:21:32;9.07;;;6.22;;
59974;SDS011;62136;-35.664;-63.766;2022-11-15T04:24:17;8.05;;;5.80;;
59974;SDS011;62136;-35.664;-63.766;2022-11-15T04:26:44;9.52;;;5.50;;
59974;SDS011;62136;-35.664;-63.766;2022-11-15T04:29:15;7.28;;;5.15;;
59974;SDS011;62136;-35.664;-63.766;2022-11-15T04:32:04;6.18;;;5.03;;
59974;SDS011;62136;-35.664;-63.766;2022-11-15T04:34:35;8.23;;;5.68;;
59974;SDS011;62136;-35.664;-63.766;2022-11-15T04:37:05;10.20;;;5.20;;
59974;SDS011;62136;-35.664;-63.766;2022-11-15T04:39:41;8.77;;;5.55;;
59974;SDS011;62136;-35.664;-63.766;2022-11-15T04:42:09;9.00;;;5.35;;
59974;SDS011;62136;-35.664;-63.766;2022-11-15T04:44:37;6.82;;;5.40;;
59974;SDS011;62136;-35.664;-63.766;2022-11-15T04:47:04;9.23;;;5.50;;
59974;SDS011;62136;-35.664;-63.766;2022-11-15T04:49:31;6.28;;;5.43;;
59974;SDS011;62136;-35.664;-63.766;2022-11-15T04:51:58;6.97;;;5.43;;
59974;SDS011;62136;-35.664;-63.766;2022-11-15T04:54:25;6.93;;;5.32;;
59974;SDS011;62136;-35.664;-63.766;2022-11-15T04:56:52;8.15;;;5.20;;
59974;SDS011;62136;-35.664;-63.766;2022-11-15T04:59:19;8.07;;;4.80;;
59974;SDS011;62136;-35.664;-63.766;2022-11-15T05:01:46;5.88;;;4.80;;
59974;SDS011;62136;-35.664;-63.766;2022-11-15T05:04:13;5.72;;;4.53;;
59974;SDS011;62136;-35.664;-63.766;2022-11-15T05:06:50;7.20;;;5.25;;
59974;SDS011;62136;-35.664;-63.766;2022-11-15T05:09:17;8.57;;;6.05;;
59974;SDS011;62136;-35.664;-63.766;2022-11-15T05:11:45;6.93;;;4.45;;
59974;SDS011;62136;-35.664;-63.766;2022-11-15T05:14:13;7.35;;;4.95;;
59974;SDS011;62136;-35.664;-63.766;2022-11-15T05:16:40;7.20;;;4.78;;
59974;SDS011;62136;-35.664;-63.766;2022-11-15T05:19:08;7.43;;;4.72;;
59974;SDS011;62136;-35.664;-63.766;2022-11-15T05:21:35;6.97;;;4.50;;
59974;SDS011;62136;-35.664;-63.766;2022-11-15T05:24:02;6.63;;;4.35;;
59974;SDS011;62136;-35.664;-63.766;2022-11-15T05:26:30;8.57;;;4.93;;
59974;SDS011;62136;-35.664;-63.766;2022-11-15T05:28:58;6.78;;;4.30;;
59974;SDS011;62136;-35.664;-63.766;2022-11-15T05:31:26;5.70;;;4.60;;
59974;SDS011;62136;-35.664;-63.766;2022-11-15T05:33:53;5.00;;;4.25;;
59974;SDS011;62136;-35.664;-63.766;2022-11-15T05:38:55;7.07;;;4.57;;
59974;SDS011;62136;-35.664;-63.766;2022-11-15T05:41:25;6.13;;;4.53;;
59974;SDS011;62136;-35.664;-63.766;2022-11-15T05:43:58;5.85;;;4.07;;
59974;SDS011;62136;-35.664;-63.766;2022-11-15T05:46:26;5.65;;;4.30;;
59974;SDS011;62136;-35.664;-63.766;2022-11-15T05:48:54;5.30;;;3.78;;
59974;SDS011;62136;-35.664;-63.766;2022-11-15T05:51:23;5.75;;;4.32;;
59974;SDS011;62136;-35.664;-63.766;2022-11-15T05:53:53;5.32;;;4.22;;
59974;SDS011;62136;-35.664;-63.766;2022-11-15T05:56:24;6.38;;;4.10;;
59974;SDS011;62136;-35.664;-63.766;2022-11-15T05:58:55;6.75;;;4.65;;
59974;SDS011;62136;-35.664;-63.766;2022-11-15T06:01:24;5.10;;;4.03;;
59974;SDS011;62136;-35.664;-63.766;2022-11-15T06:03:51;4.60;;;4.15;;
59974;SDS011;62136;-35.664;-63.766;2022-11-15T06:06:18;5.88;;;4.20;;
59974;SDS011;62136;-35.664;-63.766;2022-11-15T06:08:45;5.65;;;4.40;;
59974;SDS011;62136;-35.664;-63.766;2022-11-15T06:11:13;5.03;;;3.95;;
59974;SDS011;62136;-35.664;-63.766;2022-11-15T06:13:40;5.65;;;4.03;;
59974;SDS011;62136;-35.664;-63.766;2022-11-15T06:16:07;4.30;;;3.67;;
59974;SDS011;62136;-35.664;-63.766;2022-11-15T06:18:35;4.68;;;3.67;;
59974;SDS011;62136;-35.664;-63.766;2022-11-15T06:21:02;4.93;;;3.95;;
59974;SDS011;62136;-35.664;-63.766;2022-11-15T06:23:33;5.47;;;4.20;;
59974;SDS011;62136;-35.664;-63.766;2022-11-15T06:26:01;6.57;;;4.20;;
59974;SDS011;62136;-35.664;-63.766;2022-11-15T06:28:29;6.30;;;4.13;;
59974;SDS011;62136;-35.664;-63.766;2022-11-15T06:31:07;4.55;;;3.67;;
59974;SDS011;62136;-35.664;-63.766;2022-11-15T06:33:36;4.07;;;3.67;;
59974;SDS011;62136;-35.664;-63.766;2022-11-15T06:36:07;5.68;;;4.05;;
59974;SDS011;62136;-35.664;-63.766;2022-11-15T06:38:36;5.28;;;3.55;;
59974;SDS011;62136;-35.664;-63.766;2022-11-15T06:41:07;5.85;;;4.10;;
59974;SDS011;62136;-35.664;-63.766;2022-11-15T06:43:36;4.32;;;3.60;;
59974;SDS011;62136;-35.664;-63.766;2022-11-15T06:46:04;5.25;;;3.58;;
59974;SDS011;62136;-35.664;-63.766;2022-11-15T06:48:32;5.10;;;3.75;;
59974;SDS011;62136;-35.664;-63.766;2022-11-15T06:51:00;5.47;;;3.63;;
59974;SDS011;62136;-35.664;-63.766;2022-11-15T06:53:29;5.88;;;3.80;;
59974;SDS011;62136;-35.664;-63.766;2022-11-15T06:56:03;4.15;;;3.47;;
59974;SDS011;62136;-35.664;-63.766;2022-11-15T06:58:31;4.40;;;3.40;;
59974;SDS011;62136;-35.664;-63.766;2022-11-15T07:01:17;5.03;;;3.75;;
59974;SDS011;62136;-35.664;-63.766;2022-11-15T07:03:43;5.35;;;3.83;;
59974;SDS011;62136;-35.664;-63.766;2022-11-15T07:06:11;4.40;;;3.33;;
59974;SDS011;62136;-35.664;-63.766;2022-11-15T07:08:38;4.93;;;3.83;;
59974;SDS011;62136;-35.664;-63.766;2022-11-15T07:11:07;3.85;;;3.20;;
59974;SDS011;62136;-35.664;-63.766;2022-11-15T07:13:35;4.45;;;3.65;;
59974;SDS011;62136;-35.664;-63.766;2022-11-15T07:16:06;5.63;;;3.47;;
59974;SDS011;62136;-35.664;-63.766;2022-11-15T07:18:35;3.97;;;3.58;;
59974;SDS011;62136;-35.664;-63.766;2022-11-15T07:21:06;4.72;;;3.05;;
59974;SDS011;62136;-35.664;-63.766;2022-11-15T07:23:36;5.05;;;3.60;;
59974;SDS011;62136;-35.664;-63.766;2022-11-15T07:26:05;4.03;;;3.40;;
59974;SDS011;62136;-35.664;-63.766;2022-11-15T07:28:32;4.18;;;3.40;;
59974;SDS011;62136;-35.664;-63.766;2022-11-15T07:31:07;3.63;;;2.97;;
59974;SDS011;62136;-35.664;-63.766;2022-11-15T07:33:35;4.45;;;3.53;;
59974;SDS011;62136;-35.664;-63.766;2022-11-15T07:36:03;4.85;;;3.15;;
59974;SDS011;62136;-35.664;-63.766;2022-11-15T07:38:31;4.28;;;3.25;;
59974;SDS011;62136;-35.664;-63.766;2022-11-15T07:41:00;4.80;;;3.65;;
59974;SDS011;62136;-35.664;-63.766;2022-11-15T07:43:28;3.85;;;3.50;;
59974;SDS011;62136;-35.664;-63.766;2022-11-15T07:45:58;3.47;;;2.90;;
59974;SDS011;62136;-35.664;-63.766;2022-11-15T07:48:30;3.97;;;3.05;;
59974;SDS011;62136;-35.664;-63.766;2022-11-15T07:50:57;3.55;;;3.25;;
59974;SDS011;62136;-35.664;-63.766;2022-11-15T07:53:24;3.53;;;2.78;;
59974;SDS011;62136;-35.664;-63.766;2022-11-15T07:55:51;4.07;;;2.97;;
59974;SDS011;62136;-35.664;-63.766;2022-11-15T07:58:19;3.40;;;2.75;;
59974;SDS011;62136;-35.664;-63.766;2022-11-15T08:00:46;4.90;;;3.17;;
59974;SDS011;62136;-35.664;-63.766;2022-11-15T08:03:13;4.80;;;3.42;;
59974;SDS011;62136;-35.664;-63.766;2022-11-15T08:05:42;3.50;;;2.97;;
59974;SDS011;62136;-35.664;-63.766;2022-11-15T08:08:15;3.20;;;2.90;;
59974;SDS011;62136;-35.664;-63.766;2022-11-15T08:10:42;5.15;;;3.47;;
59974;SDS011;62136;-35.664;-63.766;2022-11-15T08:15:35;3.65;;;3.00;;
59974;SDS011;62136;-35.664;-63.766;2022-11-15T08:18:08;3.00;;;2.75;;
59974;SDS011;62136;-35.664;-63.766;2022-11-15T08:23:04;3.83;;;2.75;;
59974;SDS011;62136;-35.664;-63.766;2022-11-15T08:25:32;3.42;;;2.67;;
59974;SDS011;62136;-35.664;-63.766;2022-11-15T08:28:02;3.50;;;2.45;;
59974;SDS011;62136;-35.664;-63.766;2022-11-15T08:30:33;3.35;;;2.78;;
59974;SDS011;62136;-35.664;-63.766;2022-11-15T08:33:03;3.65;;;2.88;;
59974;SDS011;62136;-35.664;-63.766;2022-11-15T08:35:30;4.47;;;3.03;;
59974;SDS011;62136;-35.664;-63.766;2022-11-15T08:37:57;4.20;;;2.90;;
59974;SDS011;62136;-35.664;-63.766;2022-11-15T08:40:24;2.80;;;2.45;;
59974;SDS011;62136;-35.664;-63.766;2022-11-15T08:42:52;4.45;;;3.05;;
59974;SDS011;62136;-35.664;-63.766;2022-11-15T08:45:19;4.88;;;2.95;;
59974;SDS011;62136;-35.664;-63.766;2022-11-15T08:47:47;3.50;;;2.72;;
59974;SDS011;62136;-35.664;-63.766;2022-11-15T08:50:14;3.05;;;2.40;;
59974;SDS011;62136;-35.664;-63.766;2022-11-15T08:52:41;3.22;;;2.45;;
59974;SDS011;62136;-35.664;-63.766;2022-11-15T08:55:08;3.08;;;2.50;;
59974;SDS011;62136;-35.664;-63.766;2022-11-15T08:57:35;3.25;;;2.95;;
59974;SDS011;62136;-35.664;-63.766;2022-11-15T09:00:03;3.42;;;2.67;;
59974;SDS011;62136;-35.664;-63.766;2022-11-15T09:02:30;3.85;;;2.85;;
59974;SDS011;62136;-35.664;-63.766;2022-11-15T09:04:57;2.85;;;2.65;;
59974;SDS011;62136;-35.664;-63.766;2022-11-15T09:07:24;3.35;;;2.45;;
59974;SDS011;62136;-35.664;-63.766;2022-11-15T09:09:51;3.42;;;2.70;;
59974;SDS011;62136;-35.664;-63.766;2022-11-15T09:12:18;2.75;;;2.45;;
59974;SDS011;62136;-35.664;-63.766;2022-11-15T09:14:45;2.50;;;2.30;;
59974;SDS011;62136;-35.664;-63.766;2022-11-15T09:17:12;2.75;;;2.50;;
59974;SDS011;62136;-35.664;-63.766;2022-11-15T09:19:39;4.13;;;2.67;;
59974;SDS011;62136;-35.664;-63.766;2022-11-15T09:22:07;3.25;;;2.25;;
59974;SDS011;62136;-35.664;-63.766;2022-11-15T09:24:34;3.10;;;2.38;;
59974;SDS011;62136;-35.664;-63.766;2022-11-15T09:27:02;3.70;;;2.38;;
59974;SDS011;62136;-35.664;-63.766;2022-11-15T09:29:29;2.92;;;2.15;;
59974;SDS011;62136;-35.664;-63.766;2022-11-15T09:31:56;2.60;;;2.13;;
59974;SDS011;62136;-35.664;-63.766;2022-11-15T09:34:23;3.70;;;2.60;;
59974;SDS011;62136;-35.664;-63.766;2022-11-15T09:36:50;3.03;;;2.47;;
59974;SDS011;62136;-35.664;-63.766;2022-11-15T09:39:17;3.25;;;2.30;;
59974;SDS011;62136;-35.664;-63.766;2022-11-15T09:50:15;3.25;;;2.40;;
59974;SDS011;62136;-35.664;-63.766;2022-11-15T09:52:54;3.08;;;2.42;;
59974;SDS011;62136;-35.664;-63.766;2022-11-15T09:55:21;2.60;;;2.30;;
59974;SDS011;62136;-35.664;-63.766;2022-11-15T09:58:02;2.47;;;2.10;;
59974;SDS011;62136;-35.664;-63.766;2022-11-15T10:00:47;3.25;;;2.40;;
59974;SDS011;62136;-35.664;-63.766;2022-11-15T10:03:22;3.00;;;2.35;;
59974;SDS011;62136;-35.664;-63.766;2022-11-15T10:06:01;3.13;;;2.70;;
59974;SDS011;62136;-35.664;-63.766;2022-11-15T10:11:22;2.83;;;2.53;;
59974;SDS011;62136;-35.664;-63.766;2022-11-15T10:22:41;2.63;;;2.17;;
59974;SDS011;62136;-35.664;-63.766;2022-11-15T10:27:50;2.40;;;2.20;;
59974;SDS011;62136;-35.664;-63.766;2022-11-15T10:30:28;2.55;;;1.90;;
59974;SDS011;62136;-35.664;-63.766;2022-11-15T10:32:58;3.08;;;2.17;;
59974;SDS011;62136;-35.664;-63.766;2022-11-15T10:35:42;2.20;;;2.00;;
59974;SDS011;62136;-35.664;-63.766;2022-11-15T10:38:10;2.58;;;2.13;;
59974;SDS011;62136;-35.664;-63.766;2022-11-15T10:40:38;3.05;;;2.30;;
59974;SDS011;62136;-35.664;-63.766;2022-11-15T10:45:39;2.95;;;2.20;;
59974;SDS011;62136;-35.664;-63.766;2022-11-15T10:50:40;2.33;;;2.13;;
59974;SDS011;62136;-35.664;-63.766;2022-11-15T10:53:23;2.65;;;2.00;;
59974;SDS011;62136;-35.664;-63.766;2022-11-15T10:55:58;2.28;;;1.88;;
59974;SDS011;62136;-35.664;-63.766;2022-11-15T10:58:39;2.22;;;2.03;;
59974;SDS011;62136;-35.664;-63.766;2022-11-15T11:01:30;2.42;;;2.08;;
59974;SDS011;62136;-35.664;-63.766;2022-11-15T11:04:00;3.17;;;2.00;;
59974;SDS011;62136;-35.664;-63.766;2022-11-15T11:06:54;2.00;;;1.67;;
59974;SDS011;62136;-35.664;-63.766;2022-11-15T11:09:38;2.40;;;1.65;;
59974;SDS011;62136;-35.664;-63.766;2022-11-15T11:12:11;3.67;;;2.03;;
59974;SDS011;62136;-35.664;-63.766;2022-11-15T11:14:40;2.33;;;2.10;;
59974;SDS011;62136;-35.664;-63.766;2022-11-15T11:25:50;2.72;;;1.90;;
59974;SDS011;62136;-35.664;-63.766;2022-11-15T11:42:42;5.28;;;1.80;;
59974;SDS011;62136;-35.664;-63.766;2022-11-15T11:48:12;4.45;;;2.40;;
59974;SDS011;62136;-35.664;-63.766;2022-11-15T11:50:43;5.25;;;1.92;;
59974;SDS011;62136;-35.664;-63.766;2022-11-15T11:53:28;4.05;;;2.13;;
59974;SDS011;62136;-35.664;-63.766;2022-11-15T11:56:27;5.63;;;2.50;;
59974;SDS011;62136;-35.664;-63.766;2022-11-15T11:59:00;3.67;;;2.10;;
59974;SDS011;62136;-35.664;-63.766;2022-11-15T12:01:35;6.25;;;2.42;;
59974;SDS011;62136;-35.664;-63.766;2022-11-15T12:07:34;6.05;;;2.13;;
59974;SDS011;62136;-35.664;-63.766;2022-11-15T12:10:04;7.30;;;2.40;;
59974;SDS011;62136;-35.664;-63.766;2022-11-15T12:12:50;4.63;;;2.65;;
59974;SDS011;62136;-35.664;-63.766;2022-11-15T12:15:27;7.30;;;2.17;;
59974;SDS011;62136;-35.664;-63.766;2022-11-15T12:18:11;3.95;;;2.15;;
59974;SDS011;62136;-35.664;-63.766;2022-11-15T12:20:42;3.67;;;2.40;;
59974;SDS011;62136;-35.664;-63.766;2022-11-15T12:23:23;3.83;;;2.10;;
59974;SDS011;62136;-35.664;-63.766;2022-11-15T12:26:03;2.38;;;2.03;;
59974;SDS011;62136;-35.664;-63.766;2022-11-15T12:28:45;4.55;;;2.17;;
59974;SDS011;62136;-35.664;-63.766;2022-11-15T12:36:46;11.18;;;8.82;;
59974;SDS011;62136;-35.664;-63.766;2022-11-15T12:39:14;9.10;;;6.82;;
59974;SDS011;62136;-35.664;-63.766;2022-11-15T12:47:24;31.63;;;27.48;;
59974;SDS011;62136;-35.664;-63.766;2022-11-15T12:49:51;31.55;;;26.35;;
59974;SDS011;62136;-35.664;-63.766;2022-11-15T12:52:19;26.15;;;21.73;;
59974;SDS011;62136;-35.664;-63.766;2022-11-15T12:54:53;20.77;;;18.48;;
59974;SDS011;62136;-35.664;-63.766;2022-11-15T12:57:26;22.30;;;19.10;;
59974;SDS011;62136;-35.664;-63.766;2022-11-15T12:59:59;20.58;;;16.95;;
59974;SDS011;62136;-35.664;-63.766;2022-11-15T13:02:44;21.67;;;18.85;;
59974;SDS011;62136;-35.664;-63.766;2022-11-15T13:13:00;21.33;;;19.05;;
59974;SDS011;62136;-35.664;-63.766;2022-11-15T13:16:06;20.15;;;18.02;;
59974;SDS011;62136;-35.664;-63.766;2022-11-15T13:18:36;19.75;;;17.83;;
59974;SDS011;62136;-35.664;-63.766;2022-11-15T13:21:18;23.00;;;18.48;;
59974;SDS011;62136;-35.664;-63.766;2022-11-15T13:24:12;17.63;;;15.77;;
59974;SDS011;62136;-35.664;-63.766;2022-11-15T13:26:40;17.80;;;15.90;;
59974;SDS011;62136;-35.664;-63.766;2022-11-15T13:29:14;19.60;;;17.42;;
59974;SDS011;62136;-35.664;-63.766;2022-11-15T13:31:44;15.15;;;13.55;;
59974;SDS011;62136;-35.664;-63.766;2022-11-15T13:37:02;14.30;;;12.50;;
59974;SDS011;62136;-35.664;-63.766;2022-11-15T13:39:31;18.33;;;16.08;;
59974;SDS011;62136;-35.664;-63.766;2022-11-15T13:41:59;15.85;;;13.75;;
59974;SDS011;62136;-35.664;-63.766;2022-11-15T13:44:28;16.15;;;14.43;;
59974;SDS011;62136;-35.664;-63.766;2022-11-15T13:47:01;15.73;;;14.25;;
59974;SDS011;62136;-35.664;-63.766;2022-11-15T13:49:30;14.43;;;13.00;;
59974;SDS011;62136;-35.664;-63.766;2022-11-15T13:51:59;15.23;;;13.63;;
59974;SDS011;62136;-35.664;-63.766;2022-11-15T13:59:46;12.45;;;11.25;;
59974;SDS011;62136;-35.664;-63.766;2022-11-15T14:02:34;12.05;;;10.50;;
59974;SDS011;62136;-35.664;-63.766;2022-11-15T14:05:18;11.55;;;10.48;;
59974;SDS011;62136;-35.664;-63.766;2022-11-15T14:10:48;11.75;;;10.60;;
59974;SDS011;62136;-35.664;-63.766;2022-11-15T14:13:31;12.43;;;9.82;;
59974;SDS011;62136;-35.664;-63.766;2022-11-15T14:16:18;11.32;;;10.23;;
59974;SDS011;62136;-35.664;-63.766;2022-11-15T14:18:50;11.32;;;9.80;;
59974;SDS011;62136;-35.664;-63.766;2022-11-15T14:21:19;11.75;;;10.55;;
59974;SDS011;62136;-35.664;-63.766;2022-11-15T14:23:46;10.10;;;9.10;;
59974;SDS011;62136;-35.664;-63.766;2022-11-15T14:26:33;10.05;;;8.82;;
59974;SDS011;62136;-35.664;-63.766;2022-11-15T14:29:22;11.95;;;10.65;;
59974;SDS011;62136;-35.664;-63.766;2022-11-15T14:31:51;13.20;;;11.80;;
59974;SDS011;62136;-35.664;-63.766;2022-11-15T14:34:18;12.07;;;10.65;;
59974;SDS011;62136;-35.664;-63.766;2022-11-15T14:36:47;15.07;;;11.10;;
59974;SDS011;62136;-35.664;-63.766;2022-11-15T14:39:14;12.57;;;10.57;;
59974;SDS011;62136;-35.664;-63.766;2022-11-15T14:41:41;13.77;;;10.02;;
59974;SDS011;62136;-35.664;-63.766;2022-11-15T14:44:09;11.18;;;9.63;;
59974;SDS011;62136;-35.664;-63.766;2022-11-15T14:46:37;11.70;;;10.07;;
59974;SDS011;62136;-35.664;-63.766;2022-11-15T14:49:05;12.68;;;10.27;;
59974;SDS011;62136;-35.664;-63.766;2022-11-15T14:51:32;10.48;;;9.45;;
59974;SDS011;62136;-35.664;-63.766;2022-11-15T14:53:59;13.70;;;9.20;;
59974;SDS011;62136;-35.664;-63.766;2022-11-15T14:56:26;9.30;;;8.30;;
59974;SDS011;62136;-35.664;-63.766;2022-11-15T14:58:53;11.82;;;7.95;;
59974;SDS011;62136;-35.664;-63.766;2022-11-15T15:03:52;8.77;;;6.70;;
59974;SDS011;62136;-35.664;-63.766;2022-11-15T15:06:22;7.53;;;6.35;;
59974;SDS011;62136;-35.664;-63.766;2022-11-15T15:08:50;8.30;;;6.85;;
59974;SDS011;62136;-35.664;-63.766;2022-11-15T15:11:27;9.00;;;7.00;;
59974;SDS011;62136;-35.664;-63.766;2022-11-15T15:13:56;9.10;;;7.60;;
59974;SDS011;62136;-35.664;-63.766;2022-11-15T15:16:26;8.75;;;6.85;;
59974;SDS011;62136;-35.664;-63.766;2022-11-15T15:18:54;10.35;;;6.22;;
59974;SDS011;62136;-35.664;-63.766;2022-11-15T15:21:25;8.88;;;6.13;;
59974;SDS011;62136;-35.664;-63.766;2022-11-15T15:23:54;7.32;;;5.80;;
59974;SDS011;62136;-35.664;-63.766;2022-11-15T15:26:21;7.18;;;5.45;;
59974;SDS011;62136;-35.664;-63.766;2022-11-15T15:28:49;5.68;;;5.18;;
59974;SDS011;62136;-35.664;-63.766;2022-11-15T15:31:17;6.38;;;5.65;;
59974;SDS011;62136;-35.664;-63.766;2022-11-15T15:33:44;7.38;;;5.45;;
59974;SDS011;62136;-35.664;-63.766;2022-11-15T15:36:12;8.18;;;5.57;;
59974;SDS011;62136;-35.664;-63.766;2022-11-15T15:38:41;6.03;;;4.70;;
59974;SDS011;62136;-35.664;-63.766;2022-11-15T15:41:12;6.03;;;4.75;;
59974;SDS011;62136;-35.664;-63.766;2022-11-15T15:43:40;6.38;;;4.53;;
59974;SDS011;62136;-35.664;-63.766;2022-11-15T15:46:10;6.10;;;4.75;;
59974;SDS011;62136;-35.664;-63.766;2022-11-15T15:48:40;5.28;;;4.55;;
59974;SDS011;62136;-35.664;-63.766;2022-11-15T15:51:08;6.82;;;4.85;;
59974;SDS011;62136;-35.664;-63.766;2022-11-15T15:53:35;5.30;;;4.32;;
59974;SDS011;62136;-35.664;-63.766;2022-11-15T15:56:02;4.70;;;4.20;;
59974;SDS011;62136;-35.664;-63.766;2022-11-15T15:58:30;7.10;;;4.43;;
59974;SDS011;62136;-35.664;-63.766;2022-11-15T16:00:57;8.38;;;3.95;;
59974;SDS011;62136;-35.664;-63.766;2022-11-15T16:03:24;4.43;;;3.60;;
59974;SDS011;62136;-35.664;-63.766;2022-11-15T16:05:53;4.82;;;3.78;;
59974;SDS011;62136;-35.664;-63.766;2022-11-15T16:08:21;6.88;;;3.67;;
59974;SDS011;62136;-35.664;-63.766;2022-11-15T16:10:50;6.20;;;3.92;;
59974;SDS011;62136;-35.664;-63.766;2022-11-15T16:13:18;4.47;;;3.40;;
59974;SDS011;62136;-35.664;-63.766;2022-11-15T16:15:45;5.10;;;3.45;;
59974;SDS011;62136;-35.664;-63.766;2022-11-15T16:18:16;5.35;;;3.45;;
59974;SDS011;62136;-35.664;-63.766;2022-11-15T16:20:47;4.90;;;3.17;;
59974;SDS011;62136;-35.664;-63.766;2022-11-15T16:23:17;4.10;;;2.78;;
59974;SDS011;62136;-35.664;-63.766;2022-11-15T16:25:51;4.63;;;3.08;;
59974;SDS011;62136;-35.664;-63.766;2022-11-15T16:28:25;3.80;;;3.33;;
59974;SDS011;62136;-35.664;-63.766;2022-11-15T16:31:10;4.32;;;3.28;;
59974;SDS011;62136;-35.664;-63.766;2022-11-15T16:33:38;4.72;;;3.03;;